Time;durP1;ratioP1;P1;durP2;ratioP2;P2;SDS_P1;SDS_P2;PMS_P1;PMS_P2;Temp;Humidity;BMP_temperature;BMP_pressure;BME280_temperature;BME280_humidity;BME280_pressure;Samples;Min_cycle;Max_cycle;Signal;HPM_P1;HPM_P2
2022/09/16 00:00:40;;;;;;;3.78;1.15;;;19.10;68.50;;;;;;2369540;52;21035;-74
2022/09/16 00:03:06;;;;;;;3.33;1.30;;;19.10;68.40;;;;;;2338723;52;21445;-74
2022/09/16 00:05:32;;;;;;;4.47;1.15;;;19.10;68.40;;;;;;2343473;53;20925;-75
2022/09/16 00:08:11;;;;;;;2.40;1.17;;;19.10;68.50;;;;;;2331485;53;20957;-74
2022/09/16 00:10:37;;;;;;;1.95;0.90;;;19.10;68.40;;;;;;2386282;52;21997;-75
2022/09/16 00:13:03;;;;;;;2.17;0.90;;;19.00;68.30;;;;;;2330717;53;21067;-74
2022/09/16 00:15:30;;;;;;;3.20;1.23;;;19.00;68.20;;;;;;2329740;53;20976;-74
2022/09/16 00:17:56;;;;;;;2.75;1.25;;;19.00;68.20;;;;;;2351358;53;21043;-74
2022/09/16 00:20:22;;;;;;;6.18;1.17;;;19.00;68.20;;;;;;2348376;52;21000;-74
2022/09/16 00:22:49;;;;;;;2.50;1.10;;;19.00;68.20;;;;;;2330242;53;20932;-74
2022/09/16 00:25:15;;;;;;;3.17;1.20;;;19.10;68.30;;;;;;2333466;53;20972;-74
2022/09/16 00:27:41;;;;;;;2.50;0.80;;;19.00;68.10;;;;;;2384660;52;22031;-74
2022/09/16 00:30:08;;;;;;;2.75;1.00;;;19.00;68.10;;;;;;2330355;53;22503;-74
2022/09/16 00:32:35;;;;;;;2.72;1.40;;;18.90;68.00;;;;;;2344399;52;22057;-74
2022/09/16 00:35:02;;;;;;;2.17;1.00;;;18.90;68.10;;;;;;2420198;52;20957;-74
2022/09/16 00:37:31;;;;;;;3.05;1.37;;;18.90;68.10;;;;;;2329955;53;21047;-74
2022/09/16 00:39:58;;;;;;;2.90;1.30;;;18.90;68.20;;;;;;2328146;53;21321;-74
2022/09/16 00:42:24;;;;;;;2.50;1.12;;;18.90;68.20;;;;;;2329305;53;21434;-74
2022/09/16 00:44:55;;;;;;;4.12;1.83;;;18.90;68.30;;;;;;2330185;53;21409;-75
2022/09/16 00:47:38;;;;;;;2.65;1.23;;;18.90;68.30;;;;;;2361438;53;21019;-74
2022/09/16 00:50:11;;;;;;;6.68;1.17;;;18.90;68.20;;;;;;2344382;53;22067;-74
2022/09/16 00:52:38;;;;;;;2.55;1.30;;;18.90;68.30;;;;;;2338704;53;20933;-74
2022/09/16 00:55:06;;;;;;;2.50;1.25;;;18.80;68.20;;;;;;2331713;53;21147;-74
2022/09/16 00:57:32;;;;;;;2.40;1.30;;;18.80;68.20;;;;;;2332973;53;20940;-74
2022/09/16 00:59:59;;;;;;;2.70;1.30;;;18.90;68.40;;;;;;2366820;53;20948;-74
2022/09/16 01:02:25;;;;;;;2.70;1.30;;;18.80;68.30;;;;;;2328973;53;20921;-74
2022/09/16 01:05:03;;;;;;;3.12;1.40;;;18.80;68.30;;;;;;2344803;53;21046;-74
2022/09/16 01:07:41;;;;;;;3.90;1.20;;;18.80;68.20;;;;;;2334454;52;21027;-74
2022/09/16 01:10:08;;;;;;;2.85;1.40;;;18.80;68.20;;;;;;2348576;52;22121;-74
2022/09/16 01:12:34;;;;;;;3.03;1.30;;;18.80;68.30;;;;;;2329674;53;21068;-74
2022/09/16 01:15:00;;;;;;;2.75;1.12;;;18.70;68.20;;;;;;2330270;53;20933;-74
2022/09/16 01:18:46;;;;;;;2.50;1.27;;;18.80;68.30;;;;;;2330162;53;21990;-74
2022/09/16 01:21:23;;;;;;;2.50;1.10;;;18.70;68.10;;;;;;2331241;52;20957;-74
2022/09/16 01:24:15;;;;;;;2.78;1.40;;;18.80;68.10;;;;;;2351844;53;21146;-74
2022/09/16 01:27:12;;;;;;;4.10;1.08;;;18.70;68.00;;;;;;2330522;53;20932;-74
2022/09/16 01:32:55;;;;;;;3.15;1.52;;;18.70;67.90;;;;;;2330034;53;20989;-74
2022/09/16 01:35:29;;;;;;;2.40;1.35;;;18.70;67.90;;;;;;2418720;52;21878;-74
2022/09/16 01:40:04;;;;;;;2.35;1.08;;;18.70;67.90;;;;;;2336505;53;21143;-74
2022/09/16 01:42:46;;;;;;;;;;;18.60;67.80;;;;;;2332934;53;20921;-74
2022/09/16 01:45:38;;;;;;;3.03;1.33;;;18.60;67.60;;;;;;2330722;53;20590;-74
2022/09/16 01:48:37;;;;;;;2.75;1.52;;;18.60;67.70;;;;;;2331502;53;20944;-75
2022/09/16 01:51:28;;;;;;;2.90;1.48;;;18.60;67.90;;;;;;2330254;53;20949;-74
2022/09/16 01:54:11;;;;;;;3.45;1.40;;;18.60;67.90;;;;;;2330959;53;20960;-74
2022/09/16 01:56:57;;;;;;;5.22;1.42;;;18.50;67.90;;;;;;2329915;53;20980;-74
2022/09/16 01:59:43;;;;;;;2.83;1.70;;;18.50;68.10;;;;;;2340571;52;21948;-74
2022/09/16 02:02:15;;;;;;;3.12;1.62;;;18.50;68.10;;;;;;2337726;52;20996;-74
2022/09/16 02:04:49;;;;;;;4.50;1.80;;;18.50;68.20;;;;;;2376846;52;20988;-74
2022/09/16 02:07:17;;;;;;;4.30;1.83;;;18.50;68.30;;;;;;2368404;52;22206;-74
2022/09/16 02:09:49;;;;;;;4.15;1.55;;;18.50;68.30;;;;;;2331891;53;21264;-73
2022/09/16 02:12:19;;;;;;;2.70;1.40;;;18.50;68.30;;;;;;2343170;52;20988;-74
2022/09/16 02:14:46;;;;;;;3.08;1.70;;;18.50;68.30;;;;;;2391337;52;20958;-74
2022/09/16 02:17:19;;;;;;;5.47;1.52;;;18.50;68.30;;;;;;2409767;52;20922;-74
2022/09/16 02:19:50;;;;;;;3.47;1.60;;;18.50;68.30;;;;;;2334041;53;20940;-74
2022/09/16 02:22:26;;;;;;;3.33;1.90;;;18.50;68.30;;;;;;2330818;53;20941;-74
2022/09/16 02:24:52;;;;;;;3.50;1.52;;;18.50;68.20;;;;;;2370845;52;20921;-75
2022/09/16 02:27:20;;;;;;;3.00;1.48;;;18.50;68.20;;;;;;2330228;53;21064;-74
2022/09/16 02:29:55;;;;;;;2.80;1.30;;;18.50;68.30;;;;;;2390269;52;20948;-74
2022/09/16 02:32:22;;;;;;;3.95;1.60;;;18.50;68.30;;;;;;2437267;52;21111;-74
2022/09/16 02:34:49;;;;;;;3.58;1.60;;;18.50;68.40;;;;;;2330629;53;20940;-74
2022/09/16 02:37:25;;;;;;;3.50;1.45;;;18.40;68.30;;;;;;2330446;53;20933;-74
2022/09/16 02:39:56;;;;;;;2.70;1.37;;;18.50;68.30;;;;;;2331343;53;20944;-74
2022/09/16 02:42:23;;;;;;;3.00;1.60;;;18.40;68.20;;;;;;2330013;53;21709;-74
2022/09/16 02:44:49;;;;;;;3.08;1.62;;;18.50;68.30;;;;;;2330553;53;20921;-74
2022/09/16 02:47:21;;;;;;;3.33;1.30;;;18.50;68.30;;;;;;2334018;53;21462;-74
2022/09/16 02:50:44;;;;;;;3.30;1.73;;;18.50;68.40;;;;;;2351228;52;21048;-74
2022/09/16 02:53:36;;;;;;;3.43;1.80;;;18.50;68.30;;;;;;2344061;52;21559;-74
2022/09/16 02:56:08;;;;;;;2.92;1.55;;;18.50;68.40;;;;;;2394439;52;21108;-74
2022/09/16 02:58:34;;;;;;;4.07;1.30;;;18.60;68.40;;;;;;2331285;53;20936;-74
2022/09/16 03:01:01;;;;;;;2.75;1.52;;;18.60;68.40;;;;;;2361373;52;21231;-74
2022/09/16 03:03:27;;;;;;;3.35;1.42;;;18.50;68.40;;;;;;2417127;52;20980;-74
2022/09/16 03:07:45;;;;;;;2.70;1.50;;;18.60;68.60;;;;;;2342764;53;20955;-74
2022/09/16 03:10:11;;;;;;;2.75;1.10;;;18.60;68.30;;;;;;2370204;52;22061;-74
2022/09/16 03:13:01;;;;;;;3.28;1.27;;;18.60;68.40;;;;;;2343772;52;21091;-74
2022/09/16 03:16:55;;;;;;;2.80;1.40;;;18.60;68.40;;;;;;2383733;52;20964;-74
2022/09/16 03:21:17;;;;;;;2.10;0.90;;;18.60;68.20;;;;;;2330161;53;21055;-74
2022/09/16 03:25:38;;;;;;;2.03;1.10;;;18.60;68.10;;;;;;2330469;53;21031;-74
2022/09/16 03:28:11;;;;;;;3.92;1.00;;;18.60;68.10;;;;;;2331116;53;22016;-74
2022/09/16 03:31:17;;;;;;;2.72;1.08;;;18.60;68.10;;;;;;2353026;52;21411;-75
2022/09/16 03:34:04;;;;;;;2.62;1.15;;;18.60;68.20;;;;;;2391097;52;21512;-74
2022/09/16 03:36:36;;;;;;;3.20;1.30;;;18.60;68.30;;;;;;2331055;53;20976;-74
2022/09/16 03:39:02;;;;;;;2.87;1.20;;;18.60;68.40;;;;;;2330579;53;21426;-74
2022/09/16 03:41:29;;;;;;;2.40;1.30;;;18.60;68.40;;;;;;2329818;53;21055;-74
2022/09/16 03:43:57;;;;;;;3.42;1.40;;;18.60;69.20;;;;;;2339939;52;20933;-74
2022/09/16 03:46:27;;;;;;;2.95;1.23;;;18.60;68.50;;;;;;2331820;53;20976;-74
2022/09/16 03:48:56;;;;;;;3.58;1.70;;;18.60;68.40;;;;;;2327869;53;21437;-74
2022/09/16 03:51:23;;;;;;;3.65;1.50;;;18.60;68.40;;;;;;2330643;53;20949;-74
2022/09/16 03:53:52;;;;;;;4.12;1.80;;;18.60;68.40;;;;;;2327580;53;21056;-74
2022/09/16 03:56:19;;;;;;;3.03;1.50;;;18.60;68.40;;;;;;2329060;53;21095;-74
2022/09/16 03:58:47;;;;;;;3.22;1.70;;;18.60;68.40;;;;;;2326669;53;21051;-74
2022/09/16 04:01:13;;;;;;;2.92;1.48;;;18.60;68.50;;;;;;2345224;52;21307;-74
2022/09/16 04:03:40;;;;;;;2.95;1.70;;;18.60;68.60;;;;;;2329924;53;21012;-74
2022/09/16 04:06:08;;;;;;;3.85;1.45;;;18.70;68.70;;;;;;2329776;53;21341;-74
2022/09/16 04:08:35;;;;;;;2.95;1.60;;;18.70;68.80;;;;;;2335460;53;21479;-74
2022/09/16 04:11:03;;;;;;;4.10;1.75;;;18.70;68.80;;;;;;2333784;53;20968;-75
2022/09/16 04:13:31;;;;;;;4.95;1.90;;;18.70;68.90;;;;;;2423474;52;21228;-75
2022/09/16 04:15:58;;;;;;;3.15;1.70;;;18.70;68.90;;;;;;2330683;53;20980;-74
2022/09/16 04:18:25;;;;;;;2.90;1.73;;;18.70;69.60;;;;;;2336606;52;21705;-74
2022/09/16 04:20:58;;;;;;;2.65;1.40;;;18.70;68.80;;;;;;2330733;53;20951;-74
2022/09/16 04:23:25;;;;;;;3.45;1.50;;;18.70;68.80;;;;;;2330778;53;20948;-74
2022/09/16 04:25:58;;;;;;;3.58;1.58;;;18.70;68.70;;;;;;2330744;53;21480;-74
2022/09/16 04:28:24;;;;;;;4.28;1.80;;;18.80;68.80;;;;;;2330289;53;21122;-74
2022/09/16 04:30:51;;;;;;;3.03;1.40;;;18.80;68.90;;;;;;2332558;53;20963;-74
2022/09/16 04:33:18;;;;;;;2.53;1.35;;;18.80;68.90;;;;;;2575991;52;21044;-75
2022/09/16 04:35:44;;;;;;;2.22;1.00;;;18.80;68.90;;;;;;2411815;52;20996;-74
2022/09/16 04:38:11;;;;;;;2.12;1.00;;;18.80;68.90;;;;;;2331553;53;20949;-74
2022/09/16 04:40:38;;;;;;;3.83;1.20;;;18.80;68.80;;;;;;2407870;52;21601;-74
2022/09/16 04:43:05;;;;;;;2.45;1.20;;;18.80;68.80;;;;;;2419039;52;22097;-74
2022/09/16 04:45:31;;;;;;;2.53;1.30;;;18.80;68.80;;;;;;2330875;53;20968;-74
2022/09/16 04:47:57;;;;;;;3.58;1.23;;;18.80;68.80;;;;;;2406403;52;21099;-74
2022/09/16 04:50:24;;;;;;;3.55;1.20;;;18.80;68.70;;;;;;2330649;53;21380;-74
2022/09/16 04:52:50;;;;;;;3.03;1.50;;;18.80;68.70;;;;;;2330415;53;21122;-74
2022/09/16 04:55:17;;;;;;;4.37;1.58;;;18.80;68.60;;;;;;2330440;53;22059;-74
2022/09/16 04:57:43;;;;;;;3.35;1.50;;;18.90;68.70;;;;;;2360786;53;21868;-74
2022/09/16 05:00:10;;;;;;;3.15;1.42;;;18.80;68.50;;;;;;2417739;52;20996;-74
2022/09/16 05:02:37;;;;;;;3.17;1.50;;;18.90;68.60;;;;;;2474515;52;21688;-74
2022/09/16 05:05:03;;;;;;;3.53;1.75;;;18.90;68.60;;;;;;2343251;53;20955;-74
2022/09/16 05:07:29;;;;;;;3.75;1.80;;;18.90;68.60;;;;;;2397227;52;22195;-74
2022/09/16 05:09:59;;;;;;;3.65;1.67;;;18.80;68.50;;;;;;2369065;52;21103;-74
2022/09/16 05:12:25;;;;;;;4.28;2.17;;;18.80;68.40;;;;;;2332465;53;22104;-74
2022/09/16 05:14:51;;;;;;;3.00;1.98;;;18.80;68.20;;;;;;2387783;52;21051;-74
2022/09/16 05:17:18;;;;;;;3.08;1.77;;;18.80;68.20;;;;;;2330451;53;21427;-74
2022/09/16 05:19:53;;;;;;;3.10;1.83;;;18.80;68.20;;;;;;2330635;53;21071;-74
2022/09/16 05:22:19;;;;;;;3.22;1.80;;;18.70;68.30;;;;;;2330255;53;20956;-74
2022/09/16 05:24:46;;;;;;;3.10;1.70;;;18.80;68.50;;;;;;2330742;53;21056;-73
2022/09/16 05:27:12;;;;;;;2.62;1.52;;;18.80;68.60;;;;;;2370784;53;20928;-73
2022/09/16 05:29:39;;;;;;;3.87;1.83;;;18.70;68.60;;;;;;2331498;53;20956;-73
2022/09/16 05:32:06;;;;;;;2.72;1.60;;;18.80;68.70;;;;;;2337642;52;20960;-72
2022/09/16 05:34:34;;;;;;;2.80;1.65;;;18.80;68.70;;;;;;2338190;52;21000;-73
2022/09/16 05:37:01;;;;;;;2.85;1.55;;;18.70;68.50;;;;;;2395807;52;21078;-73
2022/09/16 05:39:27;;;;;;;3.10;2.00;;;18.70;68.50;;;;;;2337518;53;21051;-73
2022/09/16 05:41:57;;;;;;;3.97;2.08;;;18.70;68.50;;;;;;2404446;52;20985;-72
2022/09/16 05:44:24;;;;;;;2.90;1.80;;;18.70;68.60;;;;;;2407032;52;20948;-73
2022/09/16 05:46:51;;;;;;;2.80;1.67;;;18.70;68.80;;;;;;2389756;52;20980;-73
2022/09/16 05:49:19;;;;;;;3.00;1.60;;;18.70;68.80;;;;;;2328696;53;20940;-72
2022/09/16 05:51:46;;;;;;;3.05;1.73;;;18.70;68.80;;;;;;2330790;53;20994;-73
2022/09/16 05:54:12;;;;;;;3.20;1.70;;;18.70;68.70;;;;;;2328641;53;21485;-73
2022/09/16 05:56:38;;;;;;;3.58;1.62;;;18.70;69.40;;;;;;2388592;52;21079;-73
2022/09/16 05:59:05;;;;;;;2.80;1.55;;;18.70;68.60;;;;;;2338120;53;20999;-73
2022/09/16 06:01:32;;;;;;;5.40;1.75;;;18.70;68.60;;;;;;2348464;53;21096;-73
2022/09/16 06:04:03;;;;;;;2.72;1.60;;;18.70;68.60;;;;;;2396578;52;20967;-73
2022/09/16 06:06:32;;;;;;;3.40;2.05;;;18.60;68.50;;;;;;2349391;53;22362;-73
2022/09/16 06:09:00;;;;;;;3.40;2.00;;;18.70;68.70;;;;;;2331480;53;21496;-73
2022/09/16 06:11:27;;;;;;;3.35;2.22;;;18.70;68.70;;;;;;2330780;53;20984;-73
2022/09/16 06:13:54;;;;;;;6.10;2.20;;;18.70;68.70;;;;;;2343762;52;20917;-73
2022/09/16 06:16:21;;;;;;;4.37;2.35;;;18.70;68.60;;;;;;2330993;53;25431;-74
2022/09/16 06:18:48;;;;;;;3.50;2.08;;;18.70;68.90;;;;;;2394596;52;20952;-74
2022/09/16 06:21:16;;;;;;;2.70;1.62;;;18.70;68.40;;;;;;2347870;53;20975;-74
2022/09/16 06:23:42;;;;;;;3.50;1.85;;;18.60;68.60;;;;;;2355256;52;21011;-74
2022/09/16 06:26:13;;;;;;;3.30;1.50;;;18.60;67.90;;;;;;2330743;53;21056;-74
2022/09/16 06:28:40;;;;;;;4.37;2.00;;;18.50;67.80;;;;;;2435565;52;20963;-74
2022/09/16 06:31:09;;;;;;;2.90;1.50;;;18.50;67.70;;;;;;2420949;52;21483;-74
2022/09/16 06:33:35;;;;;;;3.90;1.80;;;18.40;67.70;;;;;;2372216;52;21064;-74
2022/09/16 06:36:06;;;;;;;3.10;1.73;;;18.40;67.60;;;;;;2493727;52;21255;-73
2022/09/16 06:38:33;;;;;;;3.10;1.30;;;18.40;67.40;;;;;;2330798;53;21127;-74
2022/09/16 06:41:00;;;;;;;2.55;1.15;;;18.30;67.30;;;;;;2385327;52;21018;-74
2022/09/16 06:43:27;;;;;;;3.90;1.50;;;18.30;67.30;;;;;;2338100;52;20989;-74
2022/09/16 06:46:01;;;;;;;3.65;1.50;;;18.20;67.10;;;;;;2575403;52;20921;-73
2022/09/16 06:48:27;;;;;;;4.07;1.37;;;18.20;66.90;;;;;;2354338;52;20986;-73
2022/09/16 06:51:00;;;;;;;3.08;1.30;;;18.10;67.00;;;;;;2330693;53;22016;-74
2022/09/16 06:53:27;;;;;;;4.12;1.25;;;18.10;67.10;;;;;;2330172;53;21321;-74
2022/09/16 06:55:53;;;;;;;2.83;1.35;;;18.00;67.00;;;;;;2485061;52;20988;-74
2022/09/16 06:58:19;;;;;;;2.83;1.27;;;17.90;66.80;;;;;;2329628;53;21361;-74
2022/09/16 07:00:45;;;;;;;3.70;1.50;;;17.90;66.80;;;;;;2331788;53;20941;-74
2022/09/16 07:03:13;;;;;;;2.60;1.20;;;17.80;66.80;;;;;;2367611;52;20920;-74
2022/09/16 07:05:39;;;;;;;3.15;1.23;;;17.80;67.00;;;;;;2347493;53;22050;-74
2022/09/16 07:08:05;;;;;;;4.05;1.37;;;17.80;67.00;;;;;;2399523;52;21047;-74
2022/09/16 07:10:32;;;;;;;2.12;1.02;;;17.70;67.00;;;;;;2341148;53;21035;-74
2022/09/16 07:12:58;;;;;;;3.78;1.67;;;17.60;66.90;;;;;;2330910;53;21044;-74
2022/09/16 07:15:25;;;;;;;3.00;1.48;;;17.60;67.10;;;;;;2328358;53;21008;-74
2022/09/16 07:17:54;;;;;;;2.50;1.20;;;17.50;67.10;;;;;;2411508;52;20932;-74
2022/09/16 07:20:20;;;;;;;2.87;1.30;;;17.50;67.20;;;;;;2421703;52;20983;-74
2022/09/16 07:22:49;;;;;;;4.30;1.30;;;17.50;67.30;;;;;;2343138;53;20995;-75
2022/09/16 07:25:15;;;;;;;3.12;1.37;;;17.50;67.20;;;;;;2523594;52;21379;-74
2022/09/16 07:27:43;;;;;;;2.33;1.20;;;17.40;67.00;;;;;;2330351;53;20916;-74
2022/09/16 07:30:09;;;;;;;3.90;1.15;;;17.40;67.10;;;;;;2383284;52;20916;-74
2022/09/16 07:32:37;;;;;;;2.75;1.00;;;17.30;67.10;;;;;;2336217;52;20998;-74
2022/09/16 07:35:04;;;;;;;3.17;1.40;;;17.30;67.20;;;;;;2329835;53;20953;-74
2022/09/16 07:37:30;;;;;;;2.22;0.95;;;17.30;67.30;;;;;;2330708;53;20937;-74
2022/09/16 07:39:57;;;;;;;2.12;1.15;;;17.30;67.50;;;;;;2356182;52;21406;-74
2022/09/16 07:42:23;;;;;;;2.55;1.27;;;17.20;67.50;;;;;;2329869;53;21921;-73
2022/09/16 07:44:49;;;;;;;4.10;1.10;;;17.20;67.50;;;;;;2330536;53;20976;-73
2022/09/16 07:47:15;;;;;;;2.70;1.10;;;17.20;67.60;;;;;;2333475;53;20964;-74
2022/09/16 07:49:44;;;;;;;2.78;0.98;;;17.20;67.70;;;;;;2387215;52;21941;-73
2022/09/16 07:52:10;;;;;;;3.33;1.05;;;17.20;67.70;;;;;;2380708;52;20920;-73
2022/09/16 07:54:37;;;;;;;3.05;1.33;;;17.20;67.90;;;;;;2438275;52;22178;-73
2022/09/16 07:57:03;;;;;;;2.67;1.00;;;17.20;68.00;;;;;;2347272;52;20924;-73
2022/09/16 07:59:30;;;;;;;2.30;1.15;;;17.20;68.00;;;;;;2330069;53;21956;-73
2022/09/16 08:01:56;;;;;;;2.60;1.08;;;17.20;68.10;;;;;;2328639;53;21084;-73
2022/09/16 08:04:23;;;;;;;2.60;1.17;;;17.20;68.30;;;;;;2330282;53;21044;-73
2022/09/16 08:06:52;;;;;;;3.22;1.40;;;17.20;68.40;;;;;;2343445;53;20998;-73
2022/09/16 08:09:18;;;;;;;2.37;1.30;;;17.20;68.30;;;;;;2339656;53;20921;-73
2022/09/16 08:12:03;;;;;;;3.42;1.35;;;17.30;68.40;;;;;;2576016;52;20941;-73
2022/09/16 08:14:29;;;;;;;2.53;1.30;;;17.30;68.40;;;;;;2331185;53;20908;-73
2022/09/16 08:16:56;;;;;;;2.85;1.25;;;17.30;69.20;;;;;;2330554;53;21040;-73
2022/09/16 08:19:22;;;;;;;1.98;1.00;;;17.30;68.60;;;;;;2330462;53;20984;-74
2022/09/16 08:21:49;;;;;;;2.47;1.10;;;17.30;68.30;;;;;;2331207;53;21036;-73
2022/09/16 08:24:15;;;;;;;3.90;1.40;;;17.40;68.50;;;;;;2329002;53;21004;-73
2022/09/16 08:26:41;;;;;;;2.72;1.20;;;17.40;68.60;;;;;;2493551;52;20957;-74
2022/09/16 08:29:08;;;;;;;2.62;1.20;;;17.40;68.60;;;;;;2575666;52;21320;-73
2022/09/16 08:31:35;;;;;;;2.42;1.12;;;17.40;68.70;;;;;;2331896;53;21080;-73
2022/09/16 08:34:01;;;;;;;2.30;1.12;;;17.40;68.60;;;;;;2339792;53;21086;-73
2022/09/16 08:36:28;;;;;;;2.90;1.25;;;17.50;68.70;;;;;;2468065;52;20909;-73
2022/09/16 08:38:55;;;;;;;3.67;1.50;;;17.50;68.70;;;;;;2352489;53;22077;-73
2022/09/16 08:45:13;;;;;;;4.97;1.75;;;17.50;68.70;;;;;;2328852;53;20965;-73
2022/09/16 08:49:25;;;;;;;2.50;1.08;;;17.50;68.50;;;;;;2331200;52;21334;-73
2022/09/16 08:51:55;;;;;;;2.35;1.20;;;17.60;68.50;;;;;;2329988;53;20961;-73
2022/09/16 08:54:27;;;;;;;2.80;1.65;;;17.60;68.50;;;;;;2329912;53;22174;-74
2022/09/16 08:56:54;;;;;;;3.15;1.45;;;17.60;68.70;;;;;;2402494;52;20965;-73
2022/09/16 08:59:23;;;;;;;2.97;1.30;;;17.60;68.80;;;;;;2329074;52;21068;-73
2022/09/16 09:02:18;;;;;;;2.60;1.50;;;17.70;69.10;;;;;;2470100;52;21043;-73
2022/09/16 09:04:45;;;;;;;2.83;1.30;;;17.70;69.10;;;;;;2330785;53;20987;-73
2022/09/16 09:08:55;;;;;;;2.58;1.20;;;17.80;69.10;;;;;;2331178;53;22203;-73
2022/09/16 09:13:31;;;;;;;3.12;1.67;;;17.80;69.30;;;;;;2330756;53;20936;-73
2022/09/16 09:18:36;;;;;;;2.33;1.10;;;17.90;69.30;;;;;;2330381;53;22061;-73
2022/09/16 09:24:25;;;;;;;1.87;0.90;;;18.00;69.40;;;;;;2331395;53;21533;-73
2022/09/16 09:27:04;;;;;;;1.98;1.02;;;18.10;69.40;;;;;;2576163;52;21064;-73
2022/09/16 09:30:19;;;;;;;2.40;1.20;;;18.30;69.00;;;;;;2330687;53;21004;-73
2022/09/16 09:33:19;;;;;;;2.92;1.10;;;18.30;68.80;;;;;;2393507;52;22069;-73
2022/09/16 09:42:55;;;;;;;2.30;1.12;;;18.30;68.90;;;;;;2386839;52;20983;-73
2022/09/16 09:45:29;;;;;;;2.80;1.00;;;18.30;69.00;;;;;;2352748;52;21008;-73
2022/09/16 09:48:22;;;;;;;2.35;1.30;;;18.50;68.80;;;;;;2340727;53;20949;-73
2022/09/16 09:50:49;;;;;;;3.25;1.00;;;18.50;68.90;;;;;;2418658;52;20965;-73
2022/09/16 09:53:38;;;;;;;2.40;1.20;;;18.50;69.00;;;;;;2420949;52;21028;-73
2022/09/16 09:56:14;;;;;;;2.95;1.42;;;18.60;69.20;;;;;;2334235;53;20960;-73
2022/09/16 10:00:17;;;;;;;4.25;1.50;;;18.60;69.10;;;;;;2387106;52;20937;-73
2022/09/16 10:02:44;;;;;;;2.58;1.27;;;18.60;69.10;;;;;;2435540;52;20976;-73
2022/09/16 10:05:25;;;;;;;3.37;1.42;;;18.70;69.00;;;;;;2381178;52;20912;-73
2022/09/16 10:08:13;;;;;;;4.75;1.65;;;18.70;68.80;;;;;;2334666;53;21004;-73
2022/09/16 10:10:56;;;;;;;3.15;1.60;;;18.80;69.00;;;;;;2347226;52;21075;-73
2022/09/16 10:13:26;;;;;;;3.03;1.65;;;18.90;69.10;;;;;;2387991;52;21952;-73
2022/09/16 10:15:53;;;;;;;4.32;1.92;;;18.80;68.90;;;;;;2332275;53;20949;-73
2022/09/16 10:18:25;;;;;;;2.78;1.58;;;18.90;68.70;;;;;;2331161;53;20913;-73
2022/09/16 10:21:01;;;;;;;4.97;2.30;;;18.90;68.70;;;;;;2331179;53;20948;-73
2022/09/16 10:23:28;;;;;;;4.37;2.00;;;18.80;68.40;;;;;;2330510;53;21004;-73
2022/09/16 10:26:23;;;;;;;3.65;2.10;;;18.90;68.50;;;;;;2513225;52;20977;-74
2022/09/16 10:29:13;;;;;;;4.22;2.10;;;19.00;68.40;;;;;;2551410;52;20988;-74
2022/09/16 10:31:41;;;;;;;3.70;2.58;;;19.00;68.20;;;;;;2332788;53;21047;-74
2022/09/16 10:40:59;;;;;;;3.40;1.85;;;19.00;68.40;;;;;;2343790;53;20975;-74
2022/09/16 10:43:26;;;;;;;4.07;1.98;;;19.10;67.90;;;;;;2330241;57;21093;-74
2022/09/16 10:45:53;;;;;;;3.55;2.03;;;19.10;67.90;;;;;;2340793;53;21010;-73
2022/09/16 10:48:21;;;;;;;3.95;1.90;;;19.10;67.90;;;;;;2300223;53;2594925;-74
2022/09/16 10:50:59;;;;;;;3.70;2.10;;;19.10;67.90;;;;;;2334294;53;20969;-74
2022/09/16 10:53:39;;;;;;;3.55;1.75;;;19.20;67.90;;;;;;2369466;52;22154;-74
2022/09/16 10:56:16;;;;;;;4.85;2.00;;;19.20;67.90;;;;;;2329951;53;21075;-73
2022/09/16 10:58:43;;;;;;;3.62;1.87;;;19.20;68.10;;;;;;2371522;52;20933;-74
2022/09/16 11:03:02;;;;;;;3.80;1.85;;;19.30;68.30;;;;;;2330633;53;20941;-74
2022/09/16 11:05:44;;;;;;;3.47;1.60;;;19.30;68.10;;;;;;2388061;52;20932;-74
2022/09/16 11:08:47;;;;;;;2.97;1.55;;;19.40;68.00;;;;;;2376413;52;20933;-74
2022/09/16 11:11:16;;;;;;;;;;;19.40;67.30;;;;;;2446176;52;20986;-74
2022/09/16 11:16:30;;;;;;;4.65;1.80;;;19.50;67.20;;;;;;2380886;52;20121;-74
2022/09/16 11:19:47;;;;;;;3.42;1.58;;;19.50;67.00;;;;;;2424499;52;21036;-74
2022/09/16 11:29:20;;;;;;;3.08;1.70;;;19.50;66.80;;;;;;2340351;53;21162;-74
2022/09/16 11:32:19;;;;;;;2.83;1.40;;;19.60;66.80;;;;;;2337772;53;21162;-74
2022/09/16 11:35:25;;;;;;;4.28;1.67;;;19.60;66.40;;;;;;2347402;52;21938;-73
2022/09/16 11:37:59;;;;;;;3.28;1.48;;;19.60;66.30;;;;;;2330647;53;21400;-74
2022/09/16 11:40:55;;;;;;;3.15;1.50;;;19.60;66.70;;;;;;2343293;52;21912;-74
2022/09/16 11:45:02;;;;;;;3.20;1.42;;;19.60;66.10;;;;;;2481936;52;20940;-74
2022/09/16 11:48:31;;;;;;;2.30;1.10;;;19.60;65.90;;;;;;2334379;53;20940;-74
2022/09/16 11:52:19;;;;;;;2.83;1.23;;;19.70;65.50;;;;;;2331472;53;20933;-74
2022/09/16 11:55:44;;;;;;;3.45;1.23;;;19.70;65.10;;;;;;2340713;53;20973;-75
2022/09/16 11:59:09;;;;;;;3.67;1.20;;;19.70;65.30;;;;;;2330714;53;20932;-74
2022/09/16 12:01:38;;;;;;;2.83;1.17;;;19.70;64.50;;;;;;2541167;52;21632;-75
2022/09/16 12:05:44;;;;;;;2.60;1.10;;;19.70;65.30;;;;;;2331521;53;22103;-75
2022/09/16 12:08:23;;;;;;;3.95;0.95;;;19.70;64.50;;;;;;2402268;52;20940;-75
2022/09/16 12:10:57;;;;;;;2.75;1.10;;;19.70;65.00;;;;;;2437845;52;21111;-74
2022/09/16 12:13:40;;;;;;;2.33;1.10;;;19.60;64.50;;;;;;2330625;53;21826;-74
2022/09/16 12:16:08;;;;;;;2.33;1.00;;;19.70;63.80;;;;;;2331281;53;20933;-75
2022/09/16 12:18:44;;;;;;;3.08;1.15;;;19.70;64.20;;;;;;2393263;53;20951;-74
2022/09/16 12:23:54;;;;;;;3.47;1.08;;;19.70;63.50;;;;;;2334368;53;21378;-74
2022/09/16 12:26:23;;;;;;;2.10;0.90;;;19.70;63.10;;;;;;2349680;52;20999;-74
2022/09/16 12:31:00;;;;;;;2.65;1.02;;;19.70;63.60;;;;;;2351775;52;21044;-74
2022/09/16 12:33:33;;;;;;;3.28;1.20;;;19.60;62.10;;;;;;2337914;53;20992;-73
2022/09/16 12:36:11;;;;;;;4.45;0.88;;;19.70;62.70;;;;;;2434529;52;20937;-73
2022/09/16 12:38:38;;;;;;;2.45;0.93;;;19.60;62.00;;;;;;2526535;52;20957;-74
2022/09/16 12:45:50;;;;;;;3.03;0.88;;;19.60;62.60;;;;;;2330676;53;20972;-74
2022/09/16 12:55:27;;;;;;;2.78;0.90;;;19.60;61.50;;;;;;2366382;52;20897;-74
2022/09/16 13:04:32;;;;;;;1.75;0.60;;;19.60;62.10;;;;;;2353474;53;22053;-73
2022/09/16 13:06:59;;;;;;;0.98;0.52;;;19.60;61.90;;;;;;2330135;53;20929;-74
2022/09/16 13:09:32;;;;;;;2.70;0.90;;;19.60;62.60;;;;;;2491534;52;21881;-74
2022/09/16 13:12:01;;;;;;;2.28;0.80;;;19.60;61.90;;;;;;2403919;52;20976;-74
2022/09/16 13:15:04;;;;;;;1.43;0.73;;;19.60;62.20;;;;;;2333584;53;21040;-73
2022/09/16 13:17:38;;;;;;;2.30;0.80;;;19.60;62.20;;;;;;2340763;52;21019;-73
2022/09/16 13:20:32;;;;;;;2.28;0.90;;;19.60;62.10;;;;;;2396365;52;20952;-74
2022/09/16 13:23:07;;;;;;;2.37;1.00;;;19.70;61.40;;;;;;2330479;53;20988;-73
2022/09/16 13:25:48;;;;;;;1.77;0.77;;;19.70;61.70;;;;;;2341350;53;21430;-74
2022/09/16 13:35:04;;;;;;;2.03;0.77;;;19.70;61.60;;;;;;2421498;52;21068;-75
2022/09/16 13:37:30;;;;;;;1.62;0.52;;;19.90;61.70;;;;;;2331020;53;21256;-74
2022/09/16 13:40:08;;;;;;;2.25;0.90;;;19.90;62.10;;;;;;2331095;53;21039;-74
2022/09/16 13:42:34;;;;;;;2.22;0.73;;;19.90;61.30;;;;;;2330644;53;21422;-73
2022/09/16 13:45:00;;;;;;;1.98;0.80;;;19.90;61.70;;;;;;2427152;52;20944;-74
2022/09/16 13:47:33;;;;;;;3.85;0.90;;;19.90;61.60;;;;;;2473831;52;20928;-74
2022/09/16 13:50:13;;;;;;;2.62;0.95;;;19.90;61.40;;;;;;2338592;52;20968;-73
2022/09/16 13:52:41;;;;;;;3.17;0.90;;;19.90;60.70;;;;;;2328634;53;20992;-74
2022/09/16 13:55:19;;;;;;;2.70;1.05;;;19.90;61.40;;;;;;2332008;53;21001;-74
2022/09/16 13:58:09;;;;;;;2.83;0.75;;;20.00;61.10;;;;;;2331297;53;20928;-74
2022/09/16 14:01:00;;;;;;;3.28;1.00;;;20.00;61.20;;;;;;2576650;52;20920;-74
2022/09/16 14:03:57;;;;;;;1.70;0.98;;;20.00;61.10;;;;;;2392339;52;21075;-74
2022/09/16 14:07:00;;;;;;;2.28;0.70;;;20.00;60.30;;;;;;2329388;54;21566;-74
2022/09/16 14:09:38;;;;;;;4.65;0.80;;;20.00;60.20;;;;;;2332401;53;21603;-74
2022/09/16 14:12:23;;;;;;;1.58;0.77;;;20.00;61.00;;;;;;2327505;53;21488;-74
2022/09/16 14:14:50;;;;;;;3.00;0.70;;;20.10;60.50;;;;;;2574132;52;21000;-74
2022/09/16 14:17:45;;;;;;;2.72;0.82;;;20.10;60.80;;;;;;2330552;53;20936;-74
2022/09/16 14:20:16;;;;;;;1.77;0.70;;;20.10;59.90;;;;;;2419705;52;20975;-74
2022/09/16 14:22:45;;;;;;;2.10;0.68;;;20.10;60.50;;;;;;2330144;53;21071;-74
2022/09/16 14:25:34;;;;;;;2.67;0.70;;;20.10;60.50;;;;;;2330300;53;20984;-74
2022/09/16 14:28:34;;;;;;;1.40;0.57;;;20.10;59.80;;;;;;2355404;52;21027;-74
2022/09/16 14:31:01;;;;;;;2.35;0.68;;;20.10;59.60;;;;;;2335529;53;20924;-74
2022/09/16 14:33:44;;;;;;;1.98;0.88;;;20.10;60.20;;;;;;2352908;53;21338;-74
2022/09/16 14:36:18;;;;;;;1.65;0.68;;;20.10;59.60;;;;;;2362867;52;20944;-74
2022/09/16 14:39:00;;;;;;;2.92;0.70;;;20.00;59.80;;;;;;2493763;52;21067;-74
2022/09/16 14:41:33;;;;;;;3.72;0.90;;;20.00;59.00;;;;;;2330239;53;20964;-74
2022/09/16 14:45:31;;;;;;;2.53;0.75;;;20.10;59.50;;;;;;2358253;52;20933;-74
2022/09/16 14:47:59;;;;;;;2.83;0.65;;;20.10;59.00;;;;;;2357109;52;22172;-74